createdAt,value
2023-01-10T00:01:42.590Z,26.40
2023-01-10T00:04:10.678Z,25.90
2023-01-10T00:06:38.254Z,24.83
2023-01-10T00:09:07.025Z,25.70
2023-01-10T00:11:53.422Z,26.38
2023-01-10T00:14:21.245Z,25.85
2023-01-10T00:16:48.682Z,24.27
2023-01-10T00:19:16.518Z,23.73
2023-01-10T00:21:44.142Z,23.65
2023-01-10T00:24:22.711Z,28.15
2023-01-10T00:26:51.952Z,23.33
2023-01-10T00:29:26.710Z,24.48
2023-01-10T00:31:54.931Z,25.00
2023-01-10T00:34:22.390Z,25.63
2023-01-10T00:36:50.234Z,25.70
2023-01-10T00:39:20.518Z,24.15
2023-01-10T00:42:07.340Z,26.85
2023-01-10T00:44:34.814Z,25.77
2023-01-10T00:47:02.500Z,27.75
2023-01-10T00:49:32.933Z,30.77
2023-01-10T00:52:00.695Z,28.98
2023-01-10T00:54:28.186Z,22.65
2023-01-10T00:56:55.801Z,20.45
2023-01-10T00:59:23.472Z,21.92
2023-01-10T01:01:52.326Z,24.95
2023-01-10T01:04:20.209Z,24.67
2023-01-10T01:06:49.208Z,23.63
2023-01-10T01:09:17.283Z,23.40
2023-01-10T01:11:44.948Z,24.58
2023-01-10T01:14:12.412Z,24.92
2023-01-10T01:16:39.889Z,27.38
2023-01-10T01:19:07.462Z,26.50
2023-01-10T01:21:34.932Z,24.38
2023-01-10T01:24:02.376Z,29.30
2023-01-10T01:26:30.127Z,30.92
2023-01-10T01:28:57.626Z,30.40
2023-01-10T01:31:25.251Z,24.70
2023-01-10T01:33:52.966Z,27.48
2023-01-10T01:36:20.524Z,29.85
2023-01-10T01:38:47.985Z,27.52
2023-01-10T01:41:33.823Z,22.65
2023-01-10T01:44:05.649Z,27.13
2023-01-10T01:46:37.866Z,29.70
2023-01-10T01:49:09.670Z,29.02
2023-01-10T01:51:37.259Z,30.90
2023-01-10T01:54:08.134Z,29.25
2023-01-10T01:56:43.158Z,30.80
2023-01-10T01:59:13.059Z,32.08
2023-01-10T02:01:43.543Z,30.95
2023-01-10T02:04:21.969Z,30.92
2023-01-10T02:06:52.691Z,31.35
2023-01-10T02:09:44.213Z,31.38
2023-01-10T02:12:14.441Z,29.88
2023-01-10T02:14:45.281Z,30.63
2023-01-10T02:17:13.150Z,26.33
2023-01-10T02:19:58.098Z,31.40
2023-01-10T02:22:50.246Z,30.25
2023-01-10T02:25:35.768Z,25.95
2023-01-10T02:28:21.468Z,26.13
2023-01-10T02:31:34.737Z,26.70
2023-01-10T02:34:14.165Z,20.85
2023-01-10T02:37:06.962Z,21.38
2023-01-10T02:39:49.355Z,18.45
2023-01-10T02:42:23.596Z,21.58
2023-01-10T02:45:11.257Z,17.08
2023-01-10T02:47:40.786Z,18.42
2023-01-10T02:50:34.364Z,19.88
2023-01-10T02:53:07.609Z,19.48
2023-01-10T02:56:21.348Z,18.80
2023-01-10T02:59:22.924Z,20.05
2023-01-10T03:01:59.413Z,20.48
2023-01-10T03:04:42.146Z,22.45
2023-01-10T03:07:34.355Z,20.92
2023-01-10T03:10:15.143Z,21.88
2023-01-10T03:12:58.858Z,24.83
2023-01-10T03:15:32.900Z,21.40
2023-01-10T03:18:05.245Z,19.10
2023-01-10T03:20:37.073Z,25.40
2023-01-10T03:23:06.270Z,21.95
2023-01-10T03:25:37.816Z,18.58
2023-01-10T03:28:13.143Z,21.35
2023-01-10T03:31:13.182Z,23.17
2023-01-10T03:33:41.731Z,21.15
2023-01-10T03:36:22.875Z,24.30
2023-01-10T03:39:16.595Z,19.35
2023-01-10T03:41:58.695Z,17.17
2023-01-10T03:44:58.180Z,17.27
2023-01-10T03:47:32.141Z,16.08
2023-01-10T03:50:08.801Z,18.40
2023-01-10T03:52:37.598Z,17.20
2023-01-10T03:55:06.042Z,17.83
2023-01-10T03:57:34.567Z,42.63
2023-01-10T04:00:02.288Z,18.20
2023-01-10T04:02:32.824Z,17.45
2023-01-10T04:05:00.420Z,21.58
2023-01-10T04:07:28.479Z,20.75
2023-01-10T04:09:56.924Z,19.67
2023-01-10T04:12:24.712Z,15.77
2023-01-10T04:14:52.164Z,17.88
2023-01-10T04:17:19.636Z,23.33
2023-01-10T04:19:49.899Z,17.90
2023-01-10T04:22:17.489Z,17.75
2023-01-10T04:24:45.174Z,19.10
2023-01-10T04:27:13.760Z,18.08
2023-01-10T04:29:41.293Z,17.13
2023-01-10T04:32:08.816Z,18.27
2023-01-10T04:34:36.346Z,17.25
2023-01-10T04:37:04.190Z,16.02
2023-01-10T04:39:31.658Z,17.00
2023-01-10T04:41:59.200Z,16.00
2023-01-10T04:44:26.761Z,16.33
2023-01-10T04:46:54.248Z,17.98
2023-01-10T04:49:21.689Z,16.95
2023-01-10T04:52:01.727Z,22.45
2023-01-10T04:54:29.250Z,13.80
2023-01-10T04:56:56.779Z,12.25
2023-01-10T04:59:24.904Z,14.25
2023-01-10T05:01:52.480Z,13.30
2023-01-10T05:04:21.011Z,12.27
2023-01-10T05:06:49.865Z,12.18
2023-01-10T05:09:17.315Z,9.48
2023-01-10T05:11:44.790Z,16.13
2023-01-10T05:14:13.562Z,10.05
2023-01-10T05:16:41.272Z,13.93
2023-01-10T05:19:09.411Z,11.63
2023-01-10T05:21:36.980Z,14.80
2023-01-10T05:24:04.622Z,30.23
2023-01-10T05:26:31.978Z,11.45
2023-01-10T05:28:59.868Z,13.90
2023-01-10T05:31:27.274Z,25.17
2023-01-10T05:33:54.842Z,70.57
2023-01-10T05:36:22.903Z,14.55
2023-01-10T05:38:50.592Z,15.07
2023-01-10T05:41:17.919Z,12.40
2023-01-10T05:43:45.533Z,130.23
2023-01-10T05:46:13.116Z,39.80
2023-01-10T05:48:40.687Z,13.98
2023-01-10T05:51:09.733Z,19.17
2023-01-10T05:53:37.617Z,26.92
2023-01-10T05:56:05.313Z,13.07
2023-01-10T05:58:33.113Z,28.33
2023-01-10T06:01:00.625Z,14.07
2023-01-10T06:03:28.326Z,13.48
2023-01-10T06:05:56.723Z,22.55
2023-01-10T06:08:25.748Z,22.75
2023-01-10T06:10:53.458Z,72.85
2023-01-10T06:13:21.575Z,233.02
2023-01-10T06:15:50.811Z,210.93
2023-01-10T06:18:18.458Z,259.60
2023-01-10T06:20:48.073Z,205.02
2023-01-10T06:23:15.890Z,251.85
2023-01-10T06:25:44.477Z,342.80
2023-01-10T06:28:14.134Z,160.45
2023-01-10T06:30:43.750Z,91.82
2023-01-10T06:33:12.761Z,171.35
2023-01-10T06:35:40.659Z,181.80
2023-01-10T06:38:08.312Z,151.32
2023-01-10T06:40:35.796Z,96.97
2023-01-10T06:43:03.520Z,147.05
2023-01-10T06:45:32.181Z,181.77
2023-01-10T06:47:59.606Z,119.15
2023-01-10T06:50:27.353Z,213.43
2023-01-10T06:53:04.962Z,107.47
2023-01-10T06:55:33.521Z,20.67
2023-01-10T06:58:03.350Z,17.95
2023-01-10T07:00:32.464Z,16.35
2023-01-10T07:03:02.750Z,16.33
2023-01-10T07:05:31.040Z,15.25
2023-01-10T07:07:59.248Z,11.88
2023-01-10T07:10:26.846Z,13.73
2023-01-10T07:12:58.214Z,15.68
2023-01-10T07:15:27.112Z,9.88
2023-01-10T07:17:57.325Z,13.23
2023-01-10T07:20:25.392Z,12.68
2023-01-10T07:22:59.228Z,12.35
2023-01-10T07:25:29.332Z,15.02
2023-01-10T07:27:57.110Z,12.52
2023-01-10T07:30:26.634Z,13.35
2023-01-10T07:32:57.933Z,16.58
2023-01-10T07:35:26.209Z,18.27
2023-01-10T07:37:53.821Z,15.57
2023-01-10T07:40:21.518Z,15.10
2023-01-10T07:42:50.596Z,15.25
2023-01-10T07:45:18.569Z,16.35
2023-01-10T07:47:48.214Z,16.13
2023-01-10T07:50:18.215Z,16.92
2023-01-10T07:52:45.782Z,17.20
2023-01-10T07:55:13.272Z,19.13
2023-01-10T07:57:40.841Z,18.80
2023-01-10T08:00:09.578Z,16.75
2023-01-10T08:02:37.191Z,13.98
2023-01-10T08:05:05.248Z,12.80
2023-01-10T08:07:32.991Z,14.23
2023-01-10T08:10:00.443Z,16.20
2023-01-10T08:12:28.486Z,12.13
2023-01-10T08:14:56.080Z,14.57
2023-01-10T08:17:23.604Z,15.50
2023-01-10T08:19:51.800Z,13.50
2023-01-10T08:22:19.289Z,12.52
2023-01-10T08:24:46.712Z,17.20
2023-01-10T08:27:14.218Z,11.77
2023-01-10T08:29:42.546Z,14.65
2023-01-10T08:32:10.488Z,12.90
2023-01-10T08:34:38.387Z,14.50
2023-01-10T08:37:06.020Z,13.95
2023-01-10T08:39:35.416Z,9.60
2023-01-10T08:42:03.120Z,11.88
2023-01-10T08:44:30.654Z,9.82
2023-01-10T08:46:58.253Z,25.30
2023-01-10T08:49:26.007Z,10.73
2023-01-10T08:51:53.606Z,12.35
2023-01-10T08:54:21.146Z,12.43
2023-01-10T08:56:48.789Z,18.23
2023-01-10T08:59:16.875Z,15.00
2023-01-10T09:01:44.512Z,22.58
2023-01-10T09:04:12.385Z,98.07
2023-01-10T09:06:39.865Z,25.80
2023-01-10T09:09:07.500Z,498.45
2023-01-10T09:11:36.421Z,606.00
2023-01-10T09:14:03.980Z,115.70
2023-01-10T09:16:31.572Z,28.25
2023-01-10T09:19:00.768Z,24.33
2023-01-10T09:21:29.262Z,20.60
2023-01-10T09:23:57.266Z,21.50
2023-01-10T09:26:24.989Z,20.92
2023-01-10T09:28:52.793Z,22.23
2023-01-10T09:31:20.295Z,21.92
2023-01-10T09:33:50.475Z,21.08
2023-01-10T09:36:18.003Z,19.05
2023-01-10T09:38:45.769Z,18.55
2023-01-10T09:41:24.752Z,16.55
2023-01-10T09:44:17.491Z,17.10
2023-01-10T09:47:14.166Z,15.70
2023-01-10T09:50:06.833Z,17.13
2023-01-10T09:52:40.425Z,19.95
2023-01-10T09:55:31.545Z,19.15
2023-01-10T09:58:08.337Z,24.35
2023-01-10T10:00:42.747Z,23.77
2023-01-10T10:03:50.206Z,41.05
2023-01-10T10:06:25.857Z,21.42
2023-01-10T10:08:54.233Z,15.07
2023-01-10T10:11:41.269Z,14.23
2023-01-10T10:14:08.817Z,21.08
2023-01-10T10:17:07.103Z,17.77
2023-01-10T10:19:43.684Z,21.33
2023-01-10T10:22:25.080Z,29.10
2023-01-10T10:25:18.415Z,23.92
2023-01-10T10:28:00.266Z,19.45
2023-01-10T10:31:00.305Z,23.13
2023-01-10T10:33:51.724Z,29.30
2023-01-10T10:36:44.829Z,28.27
2023-01-10T10:39:37.715Z,36.47
2023-01-10T10:42:11.401Z,28.02
2023-01-10T10:44:55.864Z,29.20
2023-01-10T10:47:27.814Z,31.75
2023-01-10T10:50:19.115Z,28.45
2023-01-10T10:52:47.834Z,35.47
2023-01-10T10:55:19.180Z,32.25
2023-01-10T10:57:59.308Z,34.03
2023-01-10T11:00:29.279Z,38.42
2023-01-10T11:03:33.361Z,43.45
2023-01-10T11:06:02.227Z,35.88
2023-01-10T11:08:31.569Z,42.75
2023-01-10T11:11:03.041Z,39.08
2023-01-10T11:13:35.266Z,41.75
2023-01-10T11:16:05.958Z,37.65
2023-01-10T11:18:34.387Z,40.25
2023-01-10T11:21:12.693Z,117.85
2023-01-10T11:23:57.946Z,106.70
2023-01-10T11:26:41.943Z,42.88
2023-01-10T11:29:15.500Z,40.67
2023-01-10T11:31:44.240Z,34.10
2023-01-10T11:34:21.003Z,24.50
2023-01-10T11:37:21.322Z,26.27
2023-01-10T11:39:48.798Z,20.17
2023-01-10T11:42:25.382Z,29.30
2023-01-10T11:44:52.943Z,29.20
2023-01-10T11:47:21.240Z,26.60
2023-01-10T11:49:50.565Z,29.13
2023-01-10T11:52:23.399Z,22.25
2023-01-10T11:54:51.318Z,27.77
2023-01-10T11:57:22.248Z,26.48
2023-01-10T11:59:59.187Z,23.93
2023-01-10T12:02:36.463Z,24.33
2023-01-10T12:05:09.684Z,27.27
2023-01-10T12:08:06.686Z,23.13
2023-01-10T12:10:35.759Z,20.17
2023-01-10T12:13:17.685Z,22.23
2023-01-10T12:15:47.699Z,23.52
2023-01-10T12:18:17.784Z,18.00
2023-01-10T12:20:58.497Z,20.00
2023-01-10T12:23:27.392Z,20.40
2023-01-10T12:26:10.648Z,20.93
2023-01-10T12:28:40.381Z,22.00
2023-01-10T12:31:13.358Z,19.13
2023-01-10T12:33:49.704Z,23.25
2023-01-10T12:36:19.905Z,26.40
2023-01-10T12:39:06.132Z,24.60
2023-01-10T12:42:01.627Z,23.58
2023-01-10T12:44:37.647Z,27.42
2023-01-10T12:51:04.181Z,22.00
2023-01-10T12:53:36.574Z,30.93
2023-01-10T12:56:08.586Z,22.73
2023-01-10T12:59:10.296Z,21.65
2023-01-10T13:01:48.135Z,22.05
2023-01-10T13:04:44.508Z,17.92
2023-01-10T13:07:13.741Z,19.97
2023-01-10T13:09:42.978Z,24.83
2023-01-10T13:12:37.408Z,18.88
2023-01-10T13:15:25.929Z,21.33
2023-01-10T13:18:30.301Z,17.45
2023-01-10T13:21:17.351Z,15.93
2023-01-10T13:23:56.094Z,18.42
2023-01-10T13:26:26.717Z,17.52
2023-01-10T13:29:06.753Z,17.80
2023-01-10T13:31:50.777Z,14.88
2023-01-10T13:34:25.669Z,16.43
2023-01-10T13:37:32.324Z,16.33
2023-01-10T13:40:12.308Z,16.60
2023-01-10T13:43:06.913Z,15.55
2023-01-10T13:46:19.508Z,16.08
2023-01-10T13:49:04.034Z,20.87
2023-01-10T13:51:37.526Z,16.02
2023-01-10T13:54:17.320Z,15.70
2023-01-10T13:56:51.768Z,18.73
2023-01-10T13:59:43.817Z,16.65
2023-01-10T14:05:18.957Z,16.58
2023-01-10T14:07:56.146Z,14.43
2023-01-10T14:10:43.826Z,13.25
2023-01-10T14:13:48.244Z,17.95
2023-01-10T14:19:29.433Z,13.98
2023-01-10T14:22:00.186Z,10.35
2023-01-10T14:24:34.922Z,10.95
2023-01-10T14:27:03.938Z,11.00
2023-01-10T14:29:34.274Z,12.20
2023-01-10T14:32:19.555Z,13.77
2023-01-10T14:35:04.312Z,13.75
2023-01-10T14:37:56.263Z,12.13
2023-01-10T14:40:32.280Z,13.88
2023-01-10T14:43:04.897Z,13.60
2023-01-10T14:45:54.374Z,12.43
2023-01-10T14:48:27.134Z,11.77
2023-01-10T14:51:21.561Z,16.38
2023-01-10T14:54:11.285Z,12.40
2023-01-10T14:56:44.981Z,17.75
2023-01-10T14:59:36.450Z,12.95
2023-01-10T15:02:28.052Z,10.27
2023-01-10T15:05:09.875Z,7.90
2023-01-10T15:07:38.700Z,7.55
2023-01-10T15:10:22.400Z,7.25
2023-01-10T15:12:53.276Z,10.77
2023-01-10T15:15:27.050Z,9.45
2023-01-10T15:17:55.099Z,9.50
2023-01-10T15:20:23.239Z,11.45
2023-01-10T15:22:58.308Z,10.55
2023-01-10T15:25:44.889Z,9.23
2023-01-10T15:28:21.905Z,9.48
2023-01-10T15:30:49.563Z,7.45
2023-01-10T15:33:25.210Z,6.03
2023-01-10T15:35:53.135Z,5.60
2023-01-10T15:38:25.829Z,5.28
2023-01-10T15:41:02.157Z,5.53
2023-01-10T15:43:31.482Z,11.50
2023-01-10T15:46:00.597Z,9.30
2023-01-10T15:48:41.119Z,8.55
2023-01-10T15:51:15.724Z,11.07
2023-01-10T15:53:55.976Z,8.52
2023-01-10T15:56:38.663Z,9.25
2023-01-10T15:59:19.918Z,12.77
2023-01-10T16:02:07.947Z,11.23
2023-01-10T16:04:36.655Z,12.38
2023-01-10T16:07:19.157Z,11.60
2023-01-10T16:09:59.043Z,11.43
2023-01-10T16:12:51.899Z,11.15
2023-01-10T16:15:34.548Z,12.80
2023-01-10T16:18:02.970Z,15.48
2023-01-10T16:20:41.018Z,14.43
2023-01-10T16:23:16.361Z,18.63
2023-01-10T16:25:51.248Z,17.55
2023-01-10T16:28:20.693Z,17.02
2023-01-10T16:30:48.862Z,17.15
2023-01-10T16:33:26.763Z,21.73
2023-01-10T16:35:56.778Z,18.60
2023-01-10T16:38:25.890Z,12.02
2023-01-10T16:41:26.034Z,9.45
2023-01-10T16:43:54.234Z,12.77
2023-01-10T16:46:21.995Z,12.65
2023-01-10T16:48:50.660Z,12.75
2023-01-10T16:51:21.155Z,14.43
2023-01-10T16:53:48.783Z,12.32
2023-01-10T16:56:22.302Z,11.40
2023-01-10T16:58:51.156Z,10.25
2023-01-10T17:01:30.677Z,11.43
2023-01-10T17:03:58.597Z,11.65
2023-01-10T17:06:26.125Z,10.85
2023-01-10T17:08:54.187Z,9.77
2023-01-10T17:11:36.235Z,10.48
2023-01-10T17:14:05.753Z,12.77
2023-01-10T17:16:35.344Z,13.20
2023-01-10T17:19:03.095Z,13.52
2023-01-10T17:21:30.704Z,11.05
2023-01-10T17:23:58.231Z,11.20
2023-01-10T17:26:25.688Z,14.07
2023-01-10T17:28:53.481Z,17.55
2023-01-10T17:31:20.933Z,17.27
2023-01-10T17:33:51.821Z,17.65
2023-01-10T17:36:21.105Z,18.55
2023-01-10T17:38:49.235Z,17.45
2023-01-10T17:41:17.205Z,18.55
2023-01-10T17:43:44.825Z,16.23
2023-01-10T17:46:12.923Z,17.88
2023-01-10T17:48:40.351Z,15.77
2023-01-10T17:51:08.138Z,13.88
2023-01-10T17:53:35.602Z,21.13
2023-01-10T17:56:05.464Z,17.25
2023-01-10T17:58:33.513Z,19.27
2023-01-10T18:01:01.187Z,23.80
2023-01-10T18:03:29.219Z,21.15
2023-01-10T18:05:58.844Z,19.35
2023-01-10T18:08:26.952Z,16.70
2023-01-10T18:11:04.268Z,13.25
2023-01-10T18:13:31.792Z,15.80
2023-01-10T18:16:00.454Z,13.15
2023-01-10T18:18:32.026Z,13.27
2023-01-10T18:21:08.301Z,12.60
2023-01-10T18:23:36.162Z,11.07
2023-01-10T18:26:06.013Z,11.63
2023-01-10T18:28:44.356Z,13.25
2023-01-10T18:31:17.793Z,17.63
2023-01-10T18:33:47.041Z,20.63
2023-01-10T18:36:17.182Z,15.43
2023-01-10T18:38:46.335Z,21.35
2023-01-10T18:41:15.408Z,22.27
2023-01-10T18:43:42.968Z,22.60
2023-01-10T18:46:14.307Z,19.63
2023-01-10T18:48:42.275Z,23.08
2023-01-10T18:51:16.271Z,23.13
2023-01-10T18:53:44.165Z,21.98
2023-01-10T18:56:12.427Z,14.95
2023-01-10T18:58:58.124Z,13.02
2023-01-10T19:01:38.955Z,11.10
2023-01-10T19:04:11.246Z,10.32
2023-01-10T19:06:44.740Z,11.52
2023-01-10T19:09:12.548Z,11.80
2023-01-10T19:11:39.945Z,12.68
2023-01-10T19:14:11.152Z,14.55
2023-01-10T19:16:46.143Z,12.93
2023-01-10T19:19:22.930Z,13.52
2023-01-10T19:22:02.873Z,17.38
2023-01-10T19:24:33.072Z,17.73
2023-01-10T19:27:00.712Z,19.90
2023-01-10T19:29:30.586Z,24.63
2023-01-10T19:31:59.163Z,20.05
2023-01-10T19:34:26.868Z,16.48
2023-01-10T19:36:54.244Z,12.63
2023-01-10T19:39:21.611Z,10.57
2023-01-10T19:41:49.197Z,13.15
2023-01-10T19:44:17.379Z,12.73
2023-01-10T19:46:47.747Z,11.05
2023-01-10T19:49:18.459Z,11.02
2023-01-10T19:51:51.523Z,11.57
2023-01-10T19:54:19.459Z,9.43
2023-01-10T19:56:47.080Z,10.30
2023-01-10T19:59:15.437Z,9.95
2023-01-10T20:01:43.026Z,9.80
2023-01-10T20:04:11.242Z,8.63
2023-01-10T20:06:40.990Z,7.90
2023-01-10T20:09:11.189Z,6.97
2023-01-10T20:11:38.745Z,8.82
2023-01-10T20:14:08.584Z,7.30
2023-01-10T20:16:37.321Z,9.50
2023-01-10T20:19:09.285Z,6.95
2023-01-10T20:21:38.069Z,7.45
2023-01-10T20:24:14.401Z,7.95
2023-01-10T20:26:42.202Z,7.93
2023-01-10T20:29:09.742Z,7.75
2023-01-10T20:31:37.350Z,7.10
2023-01-10T20:34:05.319Z,9.65
2023-01-10T20:36:33.014Z,7.47
2023-01-10T20:39:01.637Z,9.45
2023-01-10T20:41:30.533Z,7.50
2023-01-10T20:43:58.975Z,10.20
2023-01-10T20:46:35.094Z,10.63
2023-01-10T20:49:03.400Z,7.70
2023-01-10T20:51:34.397Z,7.80
2023-01-10T20:54:03.346Z,9.20
2023-01-10T20:56:32.371Z,8.48
2023-01-10T20:59:00.125Z,8.10
2023-01-10T21:01:34.639Z,9.88
2023-01-10T21:04:06.006Z,7.78
2023-01-10T21:06:35.057Z,6.28
2023-01-10T21:09:03.498Z,9.77
2023-01-10T21:11:36.711Z,10.48
2023-01-10T21:14:13.541Z,6.53
2023-01-10T21:16:40.986Z,6.45
2023-01-10T21:19:10.812Z,5.57
2023-01-10T21:21:38.858Z,5.90
2023-01-10T21:24:06.627Z,5.22
2023-01-10T21:26:34.013Z,4.85
2023-01-10T21:29:03.056Z,5.05
2023-01-10T21:31:30.632Z,3.78
2023-01-10T21:33:58.197Z,3.47
2023-01-10T21:36:27.096Z,4.78
2023-01-10T21:38:54.675Z,3.45
2023-01-10T21:41:44.114Z,4.30
2023-01-10T21:44:11.794Z,3.65
2023-01-10T21:46:39.325Z,3.63
2023-01-10T21:49:07.063Z,4.47
2023-01-10T21:51:34.767Z,3.35
2023-01-10T21:54:02.510Z,4.30
2023-01-10T21:56:30.097Z,2.58
2023-01-10T21:58:57.607Z,4.70
2023-01-10T22:01:25.140Z,2.97
2023-01-10T22:03:52.950Z,6.20
2023-01-10T22:06:20.553Z,3.05
2023-01-10T22:08:48.544Z,2.00
2023-01-10T22:11:16.915Z,3.35
2023-01-10T22:13:48.248Z,2.63
2023-01-10T22:16:45.116Z,2.75
2023-01-10T22:19:14.652Z,2.50
2023-01-10T22:21:42.159Z,3.05
2023-01-10T22:24:10.149Z,2.83
2023-01-10T22:26:38.039Z,3.17
2023-01-10T22:29:05.534Z,3.15
2023-01-10T22:31:33.758Z,2.58
2023-01-10T22:34:01.205Z,4.07
2023-01-10T22:36:28.771Z,2.53
2023-01-10T22:38:56.321Z,3.33
2023-01-10T22:41:29.053Z,3.60
2023-01-10T22:43:58.110Z,3.30
2023-01-10T22:46:26.202Z,4.38
2023-01-10T22:48:54.315Z,2.78
2023-01-10T22:51:23.517Z,3.55
2023-01-10T22:53:52.545Z,3.03
2023-01-10T22:56:19.977Z,2.83
2023-01-10T22:58:50.689Z,2.40
2023-01-10T23:01:21.704Z,2.75
2023-01-10T23:03:49.465Z,2.55
2023-01-10T23:06:18.985Z,3.22
2023-01-10T23:08:46.790Z,2.05
2023-01-10T23:11:19.182Z,3.28
2023-01-10T23:13:48.865Z,2.58
2023-01-10T23:16:21.594Z,2.42
2023-01-10T23:18:50.298Z,2.88
2023-01-10T23:21:18.877Z,3.78
2023-01-10T23:23:46.481Z,3.72
2023-01-10T23:26:14.289Z,3.10
2023-01-10T23:28:47.881Z,4.43
2023-01-10T23:31:17.409Z,2.65
2023-01-10T23:33:44.993Z,3.33
2023-01-10T23:36:12.944Z,2.55
2023-01-10T23:38:40.714Z,3.42
2023-01-10T23:41:08.430Z,5.15
2023-01-10T23:43:36.188Z,2.40
2023-01-10T23:46:04.624Z,2.75
2023-01-10T23:48:33.843Z,4.75
2023-01-10T23:51:03.061Z,3.05
2023-01-10T23:53:31.462Z,3.88
2023-01-10T23:55:59.062Z,3.67
2023-01-10T23:58:27.685Z,2.83
